Time;durP1;ratioP1;P1;durP2;ratioP2;P2;SDS_P1;SDS_P2;PMS_P1;PMS_P2;Temp;Humidity;BMP_temperature;BMP_pressure;BME280_temperature;BME280_humidity;BME280_pressure;Samples;Min_cycle;Max_cycle;Signal;HPM_P1;HPM_P2
2021/01/19 00:02:17;;;;;;;14.48;2.95;;;;;;;;;;5026883;28;20505;-70
2021/01/19 00:04:43;;;;;;;10.45;2.97;;;;;;;;;;5021327;28;20081;-70
2021/01/19 00:07:09;;;;;;;10.70;3.28;;;;;;;;;;5009733;28;20053;-74
2021/01/19 00:09:35;;;;;;;5.80;2.47;;;;;;;;;;5023257;28;20124;-71
2021/01/19 00:12:01;;;;;;;19.33;3.58;;;;;;;;;;5004342;28;20062;-71
2021/01/19 00:14:27;;;;;;;12.75;3.50;;;;;;;;;;5017227;28;20076;-72
2021/01/19 00:16:53;;;;;;;14.77;2.88;;;;;;;;;;5030556;28;20030;-72
2021/01/19 00:19:19;;;;;;;16.10;3.10;;;;;;;;;;5029739;28;20029;-71
2021/01/19 00:21:46;;;;;;;14.07;3.75;;;;;;;;;;5029052;28;20056;-72
2021/01/19 00:24:12;;;;;;;11.88;3.15;;;;;;;;;;5027751;28;20022;-70
2021/01/19 00:26:39;;;;;;;13.75;2.40;;;;;;;;;;5031380;28;20112;-71
2021/01/19 00:29:05;;;;;;;10.63;2.95;;;;;;;;;;5030177;28;20017;-70
2021/01/19 00:31:31;;;;;;;15.48;4.03;;;;;;;;;;5025793;28;20033;-71
2021/01/19 00:33:57;;;;;;;14.52;3.80;;;;;;;;;;5025536;28;20037;-70
2021/01/19 00:36:23;;;;;;;12.70;3.10;;;;;;;;;;5028979;28;20036;-69
2021/01/19 00:38:49;;;;;;;14.05;2.78;;;;;;;;;;5029758;28;20042;-72
2021/01/19 00:41:15;;;;;;;7.13;3.20;;;;;;;;;;5029481;28;20029;-70
2021/01/19 00:43:41;;;;;;;12.88;3.00;;;;;;;;;;5025826;28;20573;-71
2021/01/19 00:46:07;;;;;;;18.15;4.43;;;;;;;;;;5031254;28;20100;-72
2021/01/19 00:48:33;;;;;;;13.45;3.60;;;;;;;;;;5027841;28;20371;-74
2021/01/19 00:50:59;;;;;;;15.32;3.83;;;;;;;;;;5026948;28;20422;-72
2021/01/19 00:53:25;;;;;;;17.38;4.60;;;;;;;;;;5025678;28;20029;-71
2021/01/19 00:55:51;;;;;;;24.33;5.05;;;;;;;;;;5029383;28;20088;-73
2021/01/19 00:58:17;;;;;;;17.63;4.60;;;;;;;;;;5029088;28;20060;-72
2021/01/19 01:00:43;;;;;;;12.43;3.47;;;;;;;;;;5028682;28;20036;-75
2021/01/19 01:03:10;;;;;;;13.23;3.60;;;;;;;;;;5025073;28;20029;-71
2021/01/19 01:05:36;;;;;;;18.60;3.50;;;;;;;;;;5029368;28;20088;-73
2021/01/19 01:08:03;;;;;;;16.70;3.25;;;;;;;;;;5029709;28;20046;-74
2021/01/19 01:10:29;;;;;;;12.65;3.42;;;;;;;;;;5028042;28;20075;-74
2021/01/19 01:12:55;;;;;;;23.25;5.80;;;;;;;;;;5027204;28;20021;-74
2021/01/19 01:15:37;;;;;;;9.70;3.92;;;;;;;;;;5028998;28;20056;-74
2021/01/19 01:18:03;;;;;;;;;;;;;;;;;;5029223;28;20461;-74
2021/01/19 01:20:29;;;;;;;19.33;5.38;;;;;;;;;;5025044;28;19910;-73
2021/01/19 01:22:55;;;;;;;10.55;4.72;;;;;;;;;;5021807;28;20025;-72
2021/01/19 01:25:21;;;;;;;7.18;1.90;;;;;;;;;;5030984;28;20068;-75
2021/01/19 01:27:48;;;;;;;11.55;4.35;;;;;;;;;;5029607;28;20018;-74
2021/01/19 01:30:15;;;;;;;24.55;5.57;;;;;;;;;;5028122;28;20143;-77
2021/01/19 01:32:41;;;;;;;18.05;4.45;;;;;;;;;;5025406;28;20017;-80
2021/01/19 01:35:08;;;;;;;18.13;7.10;;;;;;;;;;5024707;28;20398;-76
2021/01/19 01:37:34;;;;;;;15.93;6.00;;;;;;;;;;5030434;28;20104;-79
2021/01/19 01:40:00;;;;;;;14.43;4.72;;;;;;;;;;5027179;28;20026;-77
2021/01/19 01:42:27;;;;;;;20.33;5.45;;;;;;;;;;5026239;28;20025;-77
2021/01/19 01:44:53;;;;;;;15.45;6.88;;;;;;;;;;5028619;28;20033;-77
2021/01/19 01:47:24;;;;;;;16.52;6.07;;;;;;;;;;5028141;28;20032;-77
2021/01/19 01:49:51;;;;;;;20.27;6.78;;;;;;;;;;5026613;28;20045;-80
2021/01/19 01:52:18;;;;;;;11.63;4.78;;;;;;;;;;5026793;28;20094;-79
2021/01/19 01:54:46;;;;;;;19.30;8.50;;;;;;;;;;5028879;28;20030;-77
2021/01/19 01:57:12;;;;;;;16.00;7.82;;;;;;;;;;5028473;28;20036;-79
2021/01/19 01:59:38;;;;;;;22.88;8.95;;;;;;;;;;5029300;28;20064;-80
2021/01/19 02:02:08;;;;;;;8.93;4.90;;;;;;;;;;5026248;28;20325;-81
2021/01/19 02:04:34;;;;;;;17.17;5.63;;;;;;;;;;5022090;28;20410;-82
2021/01/19 02:07:03;;;;;;;20.40;8.27;;;;;;;;;;5029522;28;20041;-78
2021/01/19 02:09:29;;;;;;;24.30;9.57;;;;;;;;;;5029504;28;20025;-79
2021/01/19 02:12:03;;;;;;;23.95;9.13;;;;;;;;;;5029942;28;20036;-80
2021/01/19 02:14:36;;;;;;;13.30;5.47;;;;;;;;;;5033460;28;20505;-83
2021/01/19 02:17:32;;;;;;;27.52;9.23;;;;;;;;;;5032138;28;20444;-76
2021/01/19 02:20:00;;;;;;;14.63;6.30;;;;;;;;;;4979125;28;20085;-81
2021/01/19 02:22:27;;;;;;;26.85;10.73;;;;;;;;;;5029621;28;20025;-79
2021/01/19 02:25:12;;;;;;;15.50;5.38;;;;;;;;;;5031229;28;20025;-80
2021/01/19 02:27:52;;;;;;;16.73;7.43;;;;;;;;;;5031029;28;20032;-80
2021/01/19 02:30:37;;;;;;;12.40;6.20;;;;;;;;;;5028677;28;20038;-79
2021/01/19 02:33:04;;;;;;;20.38;7.90;;;;;;;;;;5026731;28;20132;-79
2021/01/19 02:35:35;;;;;;;18.48;8.30;;;;;;;;;;5032302;28;20030;-79
2021/01/19 02:38:05;;;;;;;27.87;9.30;;;;;;;;;;5031816;28;20036;-80
2021/01/19 02:40:32;;;;;;;18.80;7.22;;;;;;;;;;5033325;28;20114;-83
2021/01/19 02:43:10;;;;;;;15.13;6.90;;;;;;;;;;5029410;28;20033;-77
2021/01/19 02:45:37;;;;;;;16.63;8.88;;;;;;;;;;5024948;28;20033;-80
2021/01/19 02:48:04;;;;;;;25.48;11.07;;;;;;;;;;5032040;28;20026;-80
2021/01/19 02:50:30;;;;;;;17.50;7.38;;;;;;;;;;5031598;28;20017;-80
2021/01/19 02:52:57;;;;;;;19.00;9.25;;;;;;;;;;5029069;28;20091;-79
2021/01/19 02:55:23;;;;;;;22.38;9.35;;;;;;;;;;5033235;28;20029;-79
2021/01/19 02:58:01;;;;;;;17.55;6.18;;;;;;;;;;5031738;28;20033;-81
2021/01/19 03:00:35;;;;;;;25.20;12.30;;;;;;;;;;5030502;28;20583;-85
2021/01/19 03:03:02;;;;;;;31.35;10.48;;;;;;;;;;5030436;28;20470;-85
2021/01/19 03:05:29;;;;;;;28.38;12.98;;;;;;;;;;5031291;28;20456;-79
2021/01/19 03:07:56;;;;;;;14.80;7.75;;;;;;;;;;5032150;28;20100;-77
2021/01/19 03:10:22;;;;;;;17.85;7.50;;;;;;;;;;5032272;28;20482;-79
2021/01/19 03:12:48;;;;;;;21.63;8.30;;;;;;;;;;5027007;28;20025;-80
2021/01/19 03:15:15;;;;;;;20.25;10.85;;;;;;;;;;5028976;28;20104;-83
2021/01/19 03:17:43;;;;;;;23.27;10.55;;;;;;;;;;5031482;28;20049;-78
2021/01/19 03:20:10;;;;;;;29.60;12.23;;;;;;;;;;5031582;28;20022;-84
2021/01/19 03:22:36;;;;;;;16.00;9.88;;;;;;;;;;5019259;28;20520;-78
2021/01/19 03:25:02;;;;;;;29.42;10.82;;;;;;;;;;5031125;28;20064;-80
2021/01/19 03:27:28;;;;;;;18.45;9.18;;;;;;;;;;5032287;28;20433;-80
2021/01/19 03:29:54;;;;;;;28.90;12.93;;;;;;;;;;5030851;28;20049;-80
2021/01/19 03:32:20;;;;;;;28.88;13.02;;;;;;;;;;5029577;28;20103;-78
2021/01/19 03:34:46;;;;;;;22.60;11.40;;;;;;;;;;5029379;28;20026;-79
2021/01/19 03:37:12;;;;;;;15.57;6.65;;;;;;;;;;5031820;28;20187;-81
2021/01/19 03:39:38;;;;;;;23.58;11.52;;;;;;;;;;5031286;28;20076;-79
2021/01/19 03:42:04;;;;;;;26.40;10.40;;;;;;;;;;5027824;28;20029;-79
2021/01/19 03:44:30;;;;;;;34.13;12.52;;;;;;;;;;5030556;28;20033;-78
2021/01/19 03:46:56;;;;;;;19.58;7.82;;;;;;;;;;5029658;28;20065;-80
2021/01/19 03:49:22;;;;;;;24.27;7.60;;;;;;;;;;5032454;28;20025;-76
2021/01/19 03:51:48;;;;;;;22.48;10.45;;;;;;;;;;5029711;28;20025;-80
2021/01/19 03:54:14;;;;;;;20.95;10.27;;;;;;;;;;5029859;28;20711;-75
2021/01/19 03:56:41;;;;;;;28.15;14.63;;;;;;;;;;5031435;28;20033;-80
2021/01/19 03:59:07;;;;;;;19.45;8.02;;;;;;;;;;5030712;28;20033;-79
2021/01/19 04:01:38;;;;;;;21.05;8.02;;;;;;;;;;5030166;28;20036;-83
2021/01/19 04:04:04;;;;;;;22.55;10.32;;;;;;;;;;5024325;28;20030;-78
2021/01/19 04:06:31;;;;;;;23.10;11.18;;;;;;;;;;5031524;28;20053;-77
2021/01/19 04:08:57;;;;;;;11.68;6.28;;;;;;;;;;5030435;28;20021;-78
2021/01/19 04:11:23;;;;;;;26.48;9.93;;;;;;;;;;5029848;28;20038;-80
2021/01/19 04:13:49;;;;;;;14.65;7.70;;;;;;;;;;5025541;28;20021;-78
2021/01/19 04:16:16;;;;;;;34.83;14.57;;;;;;;;;;5028437;28;20076;-78
2021/01/19 04:18:42;;;;;;;24.75;12.13;;;;;;;;;;5029754;28;20025;-80
2021/01/19 04:21:08;;;;;;;21.95;10.15;;;;;;;;;;5030163;28;20033;-77
2021/01/19 04:23:34;;;;;;;32.33;11.70;;;;;;;;;;5026716;28;20029;-79
2021/01/19 04:26:00;;;;;;;19.65;9.63;;;;;;;;;;5031341;28;20528;-77
2021/01/19 04:28:26;;;;;;;19.15;9.68;;;;;;;;;;5028634;28;20479;-80
2021/01/19 04:30:52;;;;;;;13.95;7.40;;;;;;;;;;5030173;28;20047;-76
2021/01/19 04:33:18;;;;;;;24.42;9.27;;;;;;;;;;5026271;28;20037;-78
2021/01/19 04:35:44;;;;;;;25.92;10.20;;;;;;;;;;5027472;28;20029;-79
2021/01/19 04:38:10;;;;;;;11.10;5.78;;;;;;;;;;5030719;28;20029;-78
2021/01/19 04:40:36;;;;;;;23.23;8.07;;;;;;;;;;5028005;28;20021;-76
2021/01/19 04:43:03;;;;;;;18.70;5.25;;;;;;;;;;5028622;28;20034;-76
2021/01/19 04:45:29;;;;;;;14.75;7.00;;;;;;;;;;5027930;28;20022;-77
2021/01/19 04:47:56;;;;;;;25.63;9.90;;;;;;;;;;5028720;28;20021;-77
2021/01/19 04:50:22;;;;;;;32.15;10.70;;;;;;;;;;5028265;28;20026;-78
2021/01/19 04:52:52;;;;;;;26.48;11.75;;;;;;;;;;5025296;28;20030;-78
2021/01/19 04:55:24;;;;;;;25.05;7.47;;;;;;;;;;5030242;28;20104;-78
2021/01/19 04:57:54;;;;;;;24.15;8.38;;;;;;;;;;5029329;28;20100;-73
2021/01/19 05:00:23;;;;;;;17.17;8.38;;;;;;;;;;5028988;28;20013;-78
2021/01/19 05:03:08;;;;;;;28.35;5.78;;;;;;;;;;5028165;28;20014;-77
2021/01/19 05:05:49;;;;;;;11.38;4.10;;;;;;;;;;5028228;28;20021;-79
2021/01/19 05:08:15;;;;;;;20.45;7.70;;;;;;;;;;5029561;28;20056;-78
2021/01/19 05:10:42;;;;;;;14.20;6.60;;;;;;;;;;5028547;28;20022;-73
2021/01/19 05:13:12;;;;;;;11.70;3.72;;;;;;;;;;5027494;28;20460;-76
2021/01/19 05:15:45;;;;;;;20.02;7.80;;;;;;;;;;5026122;28;20033;-73
2021/01/19 05:18:12;;;;;;;19.75;6.32;;;;;;;;;;5030296;28;20088;-75
2021/01/19 05:20:45;;;;;;;14.48;6.55;;;;;;;;;;5028586;28;20029;-74
2021/01/19 05:23:21;;;;;;;15.05;6.32;;;;;;;;;;5025511;28;20194;-78
2021/01/19 05:25:51;;;;;;;7.03;4.20;;;;;;;;;;5028908;28;20045;-76
2021/01/19 05:28:17;;;;;;;14.82;4.80;;;;;;;;;;5027028;28;20013;-80
2021/01/19 05:30:51;;;;;;;12.65;4.68;;;;;;;;;;5028745;28;20097;-78
2021/01/19 05:33:17;;;;;;;13.05;5.10;;;;;;;;;;5027117;28;20021;-77
2021/01/19 05:35:43;;;;;;;15.60;6.68;;;;;;;;;;5028565;28;20515;-77
2021/01/19 05:38:09;;;;;;;19.45;5.85;;;;;;;;;;5029259;28;20021;-77
2021/01/19 05:40:42;;;;;;;17.42;4.38;;;;;;;;;;5029478;28;20514;-82
2021/01/19 05:43:14;;;;;;;15.25;4.65;;;;;;;;;;5020530;28;20486;-78
2021/01/19 05:45:50;;;;;;;19.10;5.75;;;;;;;;;;5026530;28;20022;-79
2021/01/19 05:48:17;;;;;;;11.25;3.63;;;;;;;;;;5026997;28;20040;-77
2021/01/19 05:50:43;;;;;;;15.05;4.82;;;;;;;;;;5027708;28;20486;-78
2021/01/19 05:53:15;;;;;;;12.05;4.45;;;;;;;;;;5026133;28;20486;-76
2021/01/19 05:55:47;;;;;;;13.02;3.38;;;;;;;;;;5028008;28;20018;-78
2021/01/19 05:58:14;;;;;;;13.75;3.67;;;;;;;;;;5024418;28;20298;-78
2021/01/19 06:00:41;;;;;;;15.95;5.82;;;;;;;;;;5027169;28;20026;-76
2021/01/19 06:03:14;;;;;;;10.55;4.53;;;;;;;;;;5025214;28;20033;-78
2021/01/19 06:05:40;;;;;;;12.10;4.85;;;;;;;;;;5028235;28;20028;-76
2021/01/19 06:08:09;;;;;;;9.43;3.88;;;;;;;;;;5026476;28;20457;-74
2021/01/19 06:10:35;;;;;;;15.10;4.97;;;;;;;;;;5025840;28;20034;-76
2021/01/19 06:13:01;;;;;;;9.02;3.05;;;;;;;;;;5026541;28;20371;-75
2021/01/19 06:15:28;;;;;;;14.48;4.72;;;;;;;;;;5028573;28;20100;-76
2021/01/19 06:17:54;;;;;;;18.77;4.85;;;;;;;;;;5028082;28;20495;-77
2021/01/19 06:20:20;;;;;;;12.10;3.63;;;;;;;;;;5026516;28;20021;-78
2021/01/19 06:22:46;;;;;;;18.25;7.32;;;;;;;;;;5025072;28;20279;-75
2021/01/19 06:25:13;;;;;;;10.63;4.43;;;;;;;;;;5027853;28;20041;-76
2021/01/19 06:27:39;;;;;;;4.68;2.38;;;;;;;;;;5025929;28;20032;-79
2021/01/19 06:30:07;;;;;;;9.68;2.53;;;;;;;;;;5028198;28;20025;-78
2021/01/19 06:32:38;;;;;;;8.80;2.70;;;;;;;;;;5022255;28;20029;-75
2021/01/19 06:35:11;;;;;;;9.65;3.35;;;;;;;;;;5028080;28;20037;-77
2021/01/19 06:37:37;;;;;;;12.73;3.80;;;;;;;;;;5030232;28;20036;-79
2021/01/19 06:40:08;;;;;;;12.48;3.20;;;;;;;;;;5029716;28;20114;-79
2021/01/19 06:42:35;;;;;;;12.32;3.42;;;;;;;;;;5023330;28;20056;-77
2021/01/19 06:45:07;;;;;;;11.68;2.83;;;;;;;;;;5027849;28;20029;-77
2021/01/19 06:47:41;;;;;;;8.73;3.53;;;;;;;;;;5021481;28;20029;-77
2021/01/19 06:50:07;;;;;;;14.45;2.40;;;;;;;;;;5023569;28;20034;-76
2021/01/19 06:52:43;;;;;;;12.55;3.33;;;;;;;;;;5023656;28;20026;-76
2021/01/19 06:55:22;;;;;;;19.73;3.35;;;;;;;;;;5025143;28;20045;-74
2021/01/19 06:57:53;;;;;;;8.88;3.78;;;;;;;;;;5027907;28;20033;-79
2021/01/19 07:00:21;;;;;;;12.10;3.40;;;;;;;;;;5022410;28;20026;-79
2021/01/19 07:02:53;;;;;;;10.98;3.17;;;;;;;;;;5029828;28;20029;-78
2021/01/19 07:05:20;;;;;;;9.02;3.10;;;;;;;;;;5026663;28;20444;-79
2021/01/19 07:07:47;;;;;;;15.20;4.47;;;;;;;;;;5029719;28;20501;-77
2021/01/19 07:10:15;;;;;;;6.20;2.42;;;;;;;;;;5030089;28;20033;-80
2021/01/19 07:13:00;;;;;;;10.88;3.00;;;;;;;;;;5028771;28;20023;-79
2021/01/19 07:15:45;;;;;;;12.05;3.53;;;;;;;;;;5030175;28;20083;-81
2021/01/19 07:18:11;;;;;;;9.00;3.45;;;;;;;;;;5031142;28;20124;-82
2021/01/19 07:20:41;;;;;;;7.57;3.13;;;;;;;;;;5029881;28;20179;-78
2021/01/19 07:23:20;;;;;;;8.68;4.03;;;;;;;;;;5029323;28;20106;-77
2021/01/19 07:25:46;;;;;;;6.03;3.53;;;;;;;;;;5021511;28;20052;-78
2021/01/19 07:28:12;;;;;;;9.02;3.33;;;;;;;;;;5031904;28;20025;-80
2021/01/19 07:30:39;;;;;;;6.95;2.97;;;;;;;;;;5031952;28;20018;-77
2021/01/19 07:33:06;;;;;;;13.02;4.50;;;;;;;;;;5024168;28;20022;-77
2021/01/19 07:35:35;;;;;;;10.13;3.08;;;;;;;;;;5020674;28;20565;-76
2021/01/19 07:38:01;;;;;;;14.75;5.07;;;;;;;;;;5031090;28;20025;-75
2021/01/19 07:40:27;;;;;;;9.25;4.22;;;;;;;;;;5028894;28;20574;-75
2021/01/19 07:42:54;;;;;;;9.43;3.65;;;;;;;;;;5027378;28;20045;-75
2021/01/19 07:45:32;;;;;;;17.70;5.03;;;;;;;;;;5020458;28;20029;-76
2021/01/19 07:48:08;;;;;;;11.35;4.75;;;;;;;;;;5037296;28;20044;-79
2021/01/19 07:50:45;;;;;;;9.43;3.85;;;;;;;;;;5026074;28;20022;-77
2021/01/19 07:53:11;;;;;;;12.32;4.32;;;;;;;;;;5031753;28;20039;-76
2021/01/19 07:55:44;;;;;;;12.43;3.75;;;;;;;;;;5037374;28;20029;-77
2021/01/19 07:58:16;;;;;;;8.88;4.40;;;;;;;;;;5030556;28;20412;-77
2021/01/19 08:00:43;;;;;;;17.58;4.40;;;;;;;;;;5028659;28;20032;-76
2021/01/19 08:03:09;;;;;;;15.38;5.43;;;;;;;;;;5031116;28;20234;-80
2021/01/19 08:05:36;;;;;;;17.25;4.55;;;;;;;;;;5038269;28;20025;-76
2021/01/19 08:08:12;;;;;;;10.13;4.70;;;;;;;;;;5027243;28;20045;-76
2021/01/19 08:10:38;;;;;;;12.75;5.18;;;;;;;;;;5022690;28;20025;-78
2021/01/19 08:13:04;;;;;;;26.67;5.28;;;;;;;;;;5027319;28;20037;-74
2021/01/19 08:15:31;;;;;;;17.55;6.07;;;;;;;;;;5027795;28;20112;-79
2021/01/19 08:17:58;;;;;;;21.35;5.53;;;;;;;;;;5028183;28;20036;-77
2021/01/19 08:20:27;;;;;;;14.57;5.00;;;;;;;;;;5029387;28;20060;-79
2021/01/19 08:22:57;;;;;;;14.95;4.53;;;;;;;;;;5044044;28;20052;-78
2021/01/19 08:25:32;;;;;;;21.35;5.10;;;;;;;;;;5020881;28;20105;-78
2021/01/19 08:27:59;;;;;;;19.63;5.35;;;;;;;;;;5024655;28;20120;-80
2021/01/19 08:30:30;;;;;;;14.35;4.70;;;;;;;;;;5027387;28;20108;-77
2021/01/19 08:32:56;;;;;;;19.08;6.50;;;;;;;;;;5031736;28;20092;-76
2021/01/19 08:35:23;;;;;;;26.85;4.95;;;;;;;;;;5028984;28;20036;-76
2021/01/19 08:37:54;;;;;;;18.33;3.15;;;;;;;;;;5032845;28;20017;-76
2021/01/19 08:40:21;;;;;;;23.90;5.40;;;;;;;;;;5019869;28;20121;-75
2021/01/19 08:42:47;;;;;;;17.60;3.85;;;;;;;;;;5014251;28;20128;-73
2021/01/19 08:45:13;;;;;;;27.25;5.38;;;;;;;;;;5029608;28;20124;-74
2021/01/19 08:47:40;;;;;;;28.15;4.97;;;;;;;;;;5023973;28;20026;-74
2021/01/19 08:50:14;;;;;;;26.08;5.35;;;;;;;;;;5021290;28;20476;-73
2021/01/19 08:52:40;;;;;;;35.50;7.78;;;;;;;;;;5012518;28;20227;-76
2021/01/19 08:55:26;;;;;;;25.60;4.72;;;;;;;;;;5030759;28;20042;-76
2021/01/19 08:57:56;;;;;;;37.25;4.45;;;;;;;;;;5026317;28;20032;-73
2021/01/19 09:00:33;;;;;;;26.45;5.75;;;;;;;;;;5022488;28;20160;-76
2021/01/19 09:03:00;;;;;;;35.38;4.78;;;;;;;;;;5015186;28;20049;-81
2021/01/19 09:05:30;;;;;;;30.92;5.45;;;;;;;;;;5023127;28;20441;-76
2021/01/19 09:07:59;;;;;;;52.25;5.97;;;;;;;;;;5021448;28;20049;-79
2021/01/19 09:10:25;;;;;;;34.38;5.53;;;;;;;;;;5018309;28;20033;-76
2021/01/19 09:12:52;;;;;;;29.27;5.55;;;;;;;;;;5022368;28;20477;-81
2021/01/19 09:15:18;;;;;;;29.67;5.15;;;;;;;;;;5022750;28;20052;-79
2021/01/19 09:17:55;;;;;;;36.10;4.72;;;;;;;;;;5022363;28;20029;-80
2021/01/19 09:20:22;;;;;;;28.38;3.83;;;;;;;;;;5019908;28;20040;-77
2021/01/19 09:22:48;;;;;;;30.83;4.60;;;;;;;;;;5024868;28;20028;-80
2021/01/19 09:25:14;;;;;;;39.53;4.28;;;;;;;;;;5022852;28;20235;-78
2021/01/19 09:27:41;;;;;;;31.05;4.85;;;;;;;;;;5028248;28;20049;-86
2021/01/19 09:30:11;;;;;;;33.03;6.40;;;;;;;;;;5025972;28;20056;-81
2021/01/19 09:32:38;;;;;;;30.50;4.93;;;;;;;;;;5020523;28;20107;-80
2021/01/19 09:35:04;;;;;;;27.25;4.07;;;;;;;;;;5021546;28;20053;-78
2021/01/19 09:37:30;;;;;;;59.38;5.20;;;;;;;;;;5025962;28;20132;-80
2021/01/19 09:39:56;;;;;;;32.42;4.70;;;;;;;;;;5056111;28;20555;-83
2021/01/19 09:42:23;;;;;;;20.50;3.70;;;;;;;;;;5027291;28;20048;-80
2021/01/19 09:44:49;;;;;;;24.08;3.60;;;;;;;;;;5027183;28;20101;-84
2021/01/19 09:47:16;;;;;;;14.00;3.08;;;;;;;;;;5016138;28;20052;-86
2021/01/19 09:49:43;;;;;;;27.63;4.22;;;;;;;;;;5021907;28;20045;-82
2021/01/19 09:52:13;;;;;;;40.45;5.13;;;;;;;;;;5024955;28;20021;-78
2021/01/19 09:54:39;;;;;;;29.23;4.78;;;;;;;;;;5024368;28;20030;-78
2021/01/19 09:57:08;;;;;;;25.80;4.10;;;;;;;;;;5022595;28;20048;-79
2021/01/19 09:59:34;;;;;;;23.05;3.75;;;;;;;;;;5026261;28;20025;-78
2021/01/19 10:02:01;;;;;;;28.48;4.88;;;;;;;;;;5025677;28;20359;-79
2021/01/19 10:04:31;;;;;;;23.80;3.50;;;;;;;;;;5044382;28;20029;-80
2021/01/19 10:07:04;;;;;;;38.78;4.95;;;;;;;;;;5025956;28;20095;-74
2021/01/19 10:09:30;;;;;;;40.88;7.15;;;;;;;;;;5025335;28;20026;-82
2021/01/19 10:11:57;;;;;;;26.77;6.50;;;;;;;;;;5029718;28;20110;-82
2021/01/19 10:14:29;;;;;;;23.30;4.70;;;;;;;;;;5022491;28;20025;-83
2021/01/19 10:16:55;;;;;;;22.98;4.60;;;;;;;;;;5021559;28;20038;-87
2021/01/19 10:19:22;;;;;;;35.42;6.28;;;;;;;;;;5022700;28;20041;-79
2021/01/19 10:21:54;;;;;;;32.90;4.72;;;;;;;;;;5027558;28;20112;-84
2021/01/19 10:24:20;;;;;;;28.40;5.40;;;;;;;;;;5031230;28;20030;-84
2021/01/19 10:27:00;;;;;;;33.13;4.28;;;;;;;;;;5027893;28;20029;-80
2021/01/19 10:29:26;;;;;;;30.95;5.40;;;;;;;;;;5034681;28;20114;-81
2021/01/19 10:31:59;;;;;;;41.35;5.72;;;;;;;;;;5025281;28;20091;-81
2021/01/19 10:34:27;;;;;;;25.85;4.72;;;;;;;;;;5024873;28;20025;-75
2021/01/19 10:36:53;;;;;;;33.35;5.40;;;;;;;;;;5028783;28;20030;-81
2021/01/19 10:39:20;;;;;;;38.92;5.25;;;;;;;;;;5030822;28;20071;-80
2021/01/19 10:41:46;;;;;;;25.63;3.92;;;;;;;;;;5028900;28;20025;-82
2021/01/19 10:44:13;;;;;;;28.50;5.70;;;;;;;;;;5025437;28;20026;-79
2021/01/19 10:46:39;;;;;;;36.80;5.32;;;;;;;;;;5033178;28;20033;-78
2021/01/19 10:49:10;;;;;;;23.10;3.75;;;;;;;;;;5027727;28;20017;-85
2021/01/19 10:51:36;;;;;;;28.60;4.78;;;;;;;;;;5031678;28;20379;-79
2021/01/19 10:54:03;;;;;;;44.85;5.28;;;;;;;;;;5023424;28;20041;-82
2021/01/19 10:56:29;;;;;;;17.02;5.63;;;;;;;;;;5023041;28;20092;-77
2021/01/19 10:58:55;;;;;;;32.25;5.78;;;;;;;;;;5028398;28;20473;-80
2021/01/19 11:01:21;;;;;;;41.35;5.22;;;;;;;;;;5029229;28;20014;-87
2021/01/19 11:03:47;;;;;;;43.47;7.68;;;;;;;;;;5027169;28;20025;-82
2021/01/19 11:06:13;;;;;;;27.30;4.55;;;;;;;;;;5024544;28;20076;-82
2021/01/19 11:08:39;;;;;;;29.77;5.75;;;;;;;;;;5021889;28;20509;-86
2021/01/19 11:11:08;;;;;;;34.80;5.70;;;;;;;;;;5033407;28;20030;-84
2021/01/19 11:13:34;;;;;;;33.03;6.43;;;;;;;;;;5027940;28;20025;-85
2021/01/19 11:16:00;;;;;;;46.92;5.72;;;;;;;;;;5034099;28;20025;-86
2021/01/19 11:18:26;;;;;;;25.15;5.43;;;;;;;;;;5027997;28;20052;-82
2021/01/19 11:20:52;;;;;;;34.63;6.38;;;;;;;;;;5031560;28;20029;-78
2021/01/19 11:23:18;;;;;;;28.02;4.28;;;;;;;;;;5032427;28;20030;-81
2021/01/19 11:25:44;;;;;;;24.58;3.90;;;;;;;;;;5029364;28;20026;-86
2021/01/19 11:28:10;;;;;;;40.20;7.35;;;;;;;;;;5029442;28;20032;-84
2021/01/19 11:30:36;;;;;;;32.03;4.68;;;;;;;;;;5024808;28;20021;-85
2021/01/19 11:33:02;;;;;;;30.45;7.50;;;;;;;;;;5022681;28;20034;-75
2021/01/19 11:35:28;;;;;;;29.17;4.20;;;;;;;;;;5025657;28;20036;-82
2021/01/19 11:37:55;;;;;;;11.55;2.80;;;;;;;;;;5026526;28;20393;-83
2021/01/19 11:40:21;;;;;;;27.95;3.72;;;;;;;;;;5024958;28;20026;-80
2021/01/19 11:42:47;;;;;;;48.00;4.78;;;;;;;;;;5023939;28;20478;-71
2021/01/19 11:45:14;;;;;;;18.95;2.08;;;;;;;;;;5025663;28;20095;-75
2021/01/19 11:47:40;;;;;;;20.33;3.97;;;;;;;;;;5035172;28;20025;-83
2021/01/19 11:50:07;;;;;;;36.17;5.53;;;;;;;;;;5034788;28;20115;-80
2021/01/19 11:52:33;;;;;;;27.38;4.00;;;;;;;;;;5024683;28;20025;-82
2021/01/19 11:54:59;;;;;;;24.70;4.00;;;;;;;;;;5029777;28;20043;-80
2021/01/19 11:57:25;;;;;;;24.38;4.55;;;;;;;;;;5034007;28;20083;-80
2021/01/19 11:59:51;;;;;;;18.83;3.17;;;;;;;;;;5035803;28;20029;-83
2021/01/19 12:02:17;;;;;;;17.40;3.88;;;;;;;;;;5043602;28;21074;-81
2021/01/19 12:04:44;;;;;;;16.08;3.25;;;;;;;;;;5040961;28;20033;-80
2021/01/19 12:07:10;;;;;;;31.30;4.15;;;;;;;;;;5044866;28;20037;-85
2021/01/19 12:09:36;;;;;;;26.75;4.68;;;;;;;;;;5036006;28;20033;-85
2021/01/19 12:12:02;;;;;;;19.58;3.78;;;;;;;;;;5026424;28;20032;-85
2021/01/19 12:14:28;;;;;;;23.98;4.53;;;;;;;;;;5023892;28;20116;-85
2021/01/19 12:16:55;;;;;;;32.15;5.32;;;;;;;;;;5027439;28;20059;-82
2021/01/19 12:19:21;;;;;;;32.63;6.72;;;;;;;;;;5027371;28;20029;-80
2021/01/19 12:21:50;;;;;;;23.05;4.65;;;;;;;;;;5026143;28;20037;-83
2021/01/19 12:24:17;;;;;;;29.83;5.03;;;;;;;;;;5025505;28;20426;-83
2021/01/19 12:26:45;;;;;;;30.85;4.88;;;;;;;;;;5046606;28;20025;-76
2021/01/19 12:29:11;;;;;;;23.95;5.25;;;;;;;;;;5023829;28;20458;-75
2021/01/19 12:31:37;;;;;;;34.92;4.75;;;;;;;;;;5034292;28;20032;-75
2021/01/19 12:34:03;;;;;;;21.15;3.15;;;;;;;;;;5028431;28;20029;-78
2021/01/19 12:36:30;;;;;;;27.10;4.38;;;;;;;;;;5022804;28;20022;-76
2021/01/19 12:38:56;;;;;;;25.27;4.28;;;;;;;;;;5042231;28;20069;-81
2021/01/19 12:41:22;;;;;;;33.20;3.45;;;;;;;;;;5025000;28;20021;-78
2021/01/19 12:43:48;;;;;;;21.13;3.47;;;;;;;;;;5025670;28;20029;-76
2021/01/19 12:46:17;;;;;;;19.45;2.60;;;;;;;;;;5020015;28;20029;-78
2021/01/19 12:48:43;;;;;;;12.05;3.25;;;;;;;;;;5025855;28;20049;-77
2021/01/19 12:51:15;;;;;;;21.27;3.22;;;;;;;;;;5028942;28;20498;-82
2021/01/19 12:53:42;;;;;;;18.55;3.15;;;;;;;;;;5025530;28;20444;-75
2021/01/19 12:56:11;;;;;;;18.65;3.13;;;;;;;;;;5028391;28;20033;-79
2021/01/19 12:58:37;;;;;;;13.38;3.15;;;;;;;;;;5029905;28;20079;-79
2021/01/19 13:01:04;;;;;;;17.90;3.53;;;;;;;;;;5028833;28;20041;-69
2021/01/19 13:03:30;;;;;;;25.17;2.63;;;;;;;;;;5022620;28;20022;-78
2021/01/19 13:05:57;;;;;;;14.15;2.55;;;;;;;;;;5021762;28;21066;-77
2021/01/19 13:08:23;;;;;;;19.25;4.80;;;;;;;;;;5024888;28;20498;-77
2021/01/19 13:10:49;;;;;;;18.60;4.18;;;;;;;;;;5024702;28;20067;-80
2021/01/19 13:13:16;;;;;;;18.83;2.58;;;;;;;;;;5028383;28;20061;-77
2021/01/19 13:15:42;;;;;;;16.75;2.47;;;;;;;;;;5035376;28;20031;-78
2021/01/19 13:18:08;;;;;;;17.35;4.20;;;;;;;;;;5032022;28;20072;-84
2021/01/19 13:20:34;;;;;;;25.80;3.47;;;;;;;;;;5023059;28;20046;-85
2021/01/19 13:23:00;;;;;;;11.25;2.08;;;;;;;;;;5025701;28;20041;-77
2021/01/19 13:25:26;;;;;;;16.75;3.55;;;;;;;;;;5025986;28;20063;-77
2021/01/19 13:27:52;;;;;;;11.38;2.30;;;;;;;;;;5024015;28;20042;-76
2021/01/19 13:30:18;;;;;;;16.95;3.10;;;;;;;;;;5021568;28;20437;-81
2021/01/19 13:32:45;;;;;;;10.80;2.00;;;;;;;;;;5016450;28;20478;-78
2021/01/19 13:35:13;;;;;;;10.40;1.77;;;;;;;;;;5023049;28;20054;-79
2021/01/19 13:37:39;;;;;;;22.45;4.18;;;;;;;;;;5026913;28;20036;-80
2021/01/19 13:40:05;;;;;;;9.00;2.13;;;;;;;;;;5018617;28;20517;-74
2021/01/19 13:42:31;;;;;;;14.07;2.25;;;;;;;;;;5022381;28;20645;-80
2021/01/19 13:44:57;;;;;;;15.27;2.65;;;;;;;;;;5022620;28;20486;-77
2021/01/19 13:47:24;;;;;;;27.88;5.15;;;;;;;;;;5024668;28;20026;-75
2021/01/19 13:49:50;;;;;;;17.15;4.07;;;;;;;;;;5024050;28;20562;-78
2021/01/19 13:52:17;;;;;;;14.55;3.28;;;;;;;;;;5015749;28;20226;-78
2021/01/19 13:54:43;;;;;;;27.10;4.93;;;;;;;;;;5026006;28;20036;-80
2021/01/19 13:57:09;;;;;;;9.07;3.67;;;;;;;;;;5022588;28;20036;-78
2021/01/19 13:59:35;;;;;;;17.90;6.25;;;;;;;;;;5026934;28;20026;-73
2021/01/19 14:02:01;;;;;;;28.88;5.35;;;;;;;;;;5030325;28;20025;-76
2021/01/19 14:04:27;;;;;;;25.58;5.25;;;;;;;;;;5015928;28;20502;-76
2021/01/19 14:06:53;;;;;;;23.65;4.90;;;;;;;;;;5029458;28;20037;-77
2021/01/19 14:09:19;;;;;;;14.82;4.68;;;;;;;;;;5028080;28;20406;-78
2021/01/19 14:11:45;;;;;;;13.95;3.55;;;;;;;;;;5025641;28;20025;-78
2021/01/19 14:14:30;;;;;;;21.05;4.80;;;;;;;;;;5026335;28;20025;-78
2021/01/19 14:16:57;;;;;;;17.55;6.13;;;;;;;;;;5031550;28;20029;-76
2021/01/19 14:19:24;;;;;;;17.17;4.55;;;;;;;;;;5029086;28;20124;-77
2021/01/19 14:21:53;;;;;;;19.58;4.93;;;;;;;;;;5031820;28;20030;-80
2021/01/19 14:24:20;;;;;;;25.30;4.88;;;;;;;;;;5032348;28;20067;-76
2021/01/19 14:26:46;;;;;;;23.60;6.50;;;;;;;;;;5032445;28;20021;-83
2021/01/19 14:29:12;;;;;;;19.02;5.45;;;;;;;;;;5030821;28;20457;-78
2021/01/19 14:31:45;;;;;;;27.77;6.55;;;;;;;;;;5024667;28;20083;-80
2021/01/19 14:34:11;;;;;;;16.88;4.10;;;;;;;;;;5025230;28;20018;-81
2021/01/19 14:36:37;;;;;;;19.20;3.50;;;;;;;;;;5025126;28;21139;-78